createdAt,value
2017-09-27T00:00:08.322Z,99.99
2017-09-27T00:01:18.573Z,99.99
2017-09-27T00:02:28.825Z,99.99
2017-09-27T00:03:39.027Z,99.99
2017-09-27T00:04:49.278Z,99.99
2017-09-27T00:05:59.531Z,99.99
2017-09-27T00:07:09.793Z,99.99
2017-09-27T00:08:19.757Z,99.99
2017-09-27T00:09:30.263Z,99.99
2017-09-27T00:10:40.514Z,99.99
2017-09-27T00:11:50.771Z,99.99
2017-09-27T00:13:00.700Z,99.99
2017-09-27T00:14:10.643Z,99.99
2017-09-27T00:15:21.197Z,99.99
2017-09-27T00:16:31.443Z,99.99
2017-09-27T00:17:41.700Z,99.99
2017-09-27T00:18:52.174Z,99.99
2017-09-27T00:20:02.443Z,99.99
2017-09-27T00:21:12.674Z,99.99
2017-09-27T00:22:22.618Z,99.99
2017-09-27T00:23:32.544Z,99.99
2017-09-27T00:24:43.136Z,99.99
2017-09-27T00:25:53.377Z,99.99
2017-09-27T00:27:03.264Z,99.99
2017-09-27T00:28:13.504Z,99.99
2017-09-27T00:29:23.759Z,99.99
2017-09-27T00:30:34.019Z,99.99
2017-09-27T00:31:44.276Z,99.99
2017-09-27T00:32:54.782Z,99.99
2017-09-27T00:34:05.030Z,99.99
2017-09-27T00:35:14.971Z,99.99
2017-09-27T00:36:25.230Z,99.99
2017-09-27T00:37:35.581Z,99.99
2017-09-27T00:38:45.779Z,99.99
2017-09-27T00:39:56.023Z,99.99
2017-09-27T00:41:05.334Z,99.99
2017-09-27T00:42:15.262Z,99.99
2017-09-27T00:43:25.518Z,99.99
2017-09-27T00:44:35.697Z,99.99
2017-09-27T00:45:45.948Z,99.99
2017-09-27T00:46:56.227Z,99.99
2017-09-27T00:48:06.480Z,99.99
2017-09-27T00:49:16.405Z,99.99
2017-09-27T00:50:26.946Z,99.99
2017-09-27T00:51:36.882Z,99.99
2017-09-27T00:52:47.137Z,99.99
2017-09-27T00:53:57.386Z,99.99
2017-09-27T00:55:07.321Z,99.99
2017-09-27T00:56:17.836Z,99.99
2017-09-27T00:57:28.087Z,99.99
2017-09-27T00:58:38.024Z,99.99
2017-09-27T00:59:47.635Z,99.99
2017-09-27T01:00:57.922Z,99.99
2017-09-27T01:02:07.807Z,99.99
2017-09-27T01:03:18.056Z,99.99
2017-09-27T01:04:28.309Z,99.99
2017-09-27T01:05:38.562Z,99.99
2017-09-27T01:06:48.814Z,99.99
2017-09-27T01:07:58.994Z,99.99
2017-09-27T01:09:09.247Z,99.99
2017-09-27T01:10:19.179Z,99.99
2017-09-27T01:11:28.800Z,99.99
2017-09-27T01:12:38.735Z,99.99
2017-09-27T01:13:48.611Z,99.99
2017-09-27T01:14:58.866Z,99.99
2017-09-27T01:16:09.116Z,99.99
2017-09-27T01:17:19.370Z,99.99
2017-09-27T01:18:28.996Z,99.99
2017-09-27T01:19:39.509Z,99.99
2017-09-27T01:20:49.756Z,99.99
2017-09-27T01:21:59.689Z,99.99
2017-09-27T01:23:09.625Z,99.99
2017-09-27T01:24:19.886Z,99.99
2017-09-27T01:25:30.385Z,99.99
2017-09-27T01:26:40.333Z,99.99
2017-09-27T01:27:50.573Z,99.99
2017-09-27T01:29:00.187Z,99.99
2017-09-27T01:30:10.445Z,99.99
2017-09-27T01:31:20.310Z,99.99
2017-09-27T01:32:30.559Z,99.99
2017-09-27T01:33:40.806Z,99.99
2017-09-27T01:34:51.056Z,99.99
2017-09-27T01:36:01.303Z,99.99
2017-09-27T01:37:11.858Z,99.99
2017-09-27T01:38:22.106Z,99.99
2017-09-27T01:39:32.366Z,99.99
2017-09-27T01:40:42.630Z,99.99
2017-09-27T01:41:52.913Z,99.99
2017-09-27T01:43:03.404Z,99.99
2017-09-27T01:44:13.031Z,99.99
2017-09-27T01:45:22.969Z,99.99
2017-09-27T01:46:33.211Z,99.99
2017-09-27T01:47:43.476Z,99.99
2017-09-27T01:48:53.986Z,99.99
2017-09-27T01:50:03.920Z,99.99
2017-09-27T01:51:14.171Z,99.99
2017-09-27T01:52:24.431Z,99.99
2017-09-27T01:53:34.684Z,99.99
2017-09-27T01:54:45.177Z,99.99
2017-09-27T01:55:55.431Z,99.99
2017-09-27T01:57:05.370Z,99.99
2017-09-27T01:58:15.634Z,99.99
2017-09-27T01:59:25.876Z,99.99
2017-09-27T02:00:36.375Z,99.99
2017-09-27T02:01:46.628Z,99.99
2017-09-27T02:02:56.563Z,99.99
2017-09-27T02:04:06.816Z,99.99
2017-09-27T02:05:16.759Z,99.99
2017-09-27T02:06:27.251Z,99.99
2017-09-27T02:07:37.191Z,99.99
2017-09-27T02:08:47.123Z,99.99
2017-09-27T02:09:57.365Z,99.99
2017-09-27T02:11:07.635Z,99.99
2017-09-27T02:12:17.844Z,99.99
2017-09-27T02:13:28.096Z,99.99
2017-09-27T02:14:38.362Z,99.99
2017-09-27T02:15:48.297Z,99.99
2017-09-27T02:16:58.555Z,99.99
2017-09-27T02:18:08.797Z,99.99
2017-09-27T02:19:19.038Z,99.99
2017-09-27T02:20:29.288Z,99.99
2017-09-27T02:21:39.218Z,99.99
2017-09-27T02:22:49.468Z,99.99
2017-09-27T02:23:59.964Z,99.99
2017-09-27T02:25:10.222Z,99.99
2017-09-27T02:26:20.468Z,99.99
2017-09-27T02:27:30.709Z,99.99
2017-09-27T02:28:40.960Z,99.99
2017-09-27T02:29:51.156Z,99.76
2017-09-27T02:31:01.091Z,99.95
2017-09-27T02:32:11.336Z,99.85
2017-09-27T02:33:21.589Z,98.8
2017-09-27T02:34:31.853Z,98.61
2017-09-27T02:35:42.344Z,98.42
2017-09-27T02:36:52.587Z,97.85
2017-09-27T02:38:02.836Z,97.75
2017-09-27T02:39:12.809Z,96.89
2017-09-27T02:40:22.747Z,96.32
2017-09-27T02:41:32.936Z,95.75
2017-09-27T02:42:42.566Z,95.08
2017-09-27T02:43:52.812Z,94.98
2017-09-27T02:45:03.074Z,94.98
2017-09-27T02:46:13.015Z,94.89
2017-09-27T02:47:23.517Z,94.98
2017-09-27T02:48:33.813Z,94.89
2017-09-27T02:49:44.093Z,94.12
2017-09-27T02:50:54.345Z,94.12
2017-09-27T02:52:04.324Z,93.46
2017-09-27T02:53:14.833Z,93.65
2017-09-27T02:54:25.098Z,93.74
2017-09-27T02:55:35.358Z,92.69
2017-09-27T02:56:45.298Z,92.12
2017-09-27T02:57:55.552Z,92.02
2017-09-27T02:59:05.423Z,92.31
2017-09-27T03:00:15.361Z,92.21
2017-09-27T03:01:25.608Z,91.74
2017-09-27T03:02:35.853Z,91.83
2017-09-27T03:03:45.785Z,91.74
2017-09-27T03:04:56.285Z,91.93
2017-09-27T03:06:05.901Z,91.83
2017-09-27T03:07:15.828Z,91.74
2017-09-27T03:08:26.126Z,91.93
2017-09-27T03:09:36.374Z,91.55
2017-09-27T03:10:46.604Z,91.74
2017-09-27T03:11:56.848Z,91.74
2017-09-27T03:13:06.783Z,91.74
2017-09-27T03:14:17.035Z,91.83
2017-09-27T03:15:26.972Z,91.93
2017-09-27T03:16:37.516Z,91.83
2017-09-27T03:17:47.773Z,91.74
2017-09-27T03:18:57.712Z,91.93
2017-09-27T03:20:07.960Z,91.55
2017-09-27T03:21:17.899Z,91.93
2017-09-27T03:22:28.445Z,92.02
2017-09-27T03:23:38.382Z,91.26
2017-09-27T03:24:48.331Z,91.26
2017-09-27T03:25:58.268Z,90.88
2017-09-27T03:27:08.517Z,91.16
2017-09-27T03:28:19.009Z,91.36
2017-09-27T03:29:28.963Z,90.88
2017-09-27T03:30:39.220Z,90.88
2017-09-27T03:31:49.478Z,90.78
2017-09-27T03:32:59.100Z,90.31
2017-09-27T03:34:09.608Z,91.16
2017-09-27T03:35:19.535Z,91.07
2017-09-27T03:36:29.480Z,90.69
2017-09-27T03:37:39.735Z,90.64
2017-09-27T03:38:49.992Z,91.07
2017-09-27T03:40:00.486Z,90.73
2017-09-27T03:41:10.741Z,90.59
2017-09-27T03:42:20.989Z,90.69
2017-09-27T03:43:30.939Z,90.5
2017-09-27T03:44:41.202Z,90.64
2017-09-27T03:45:51.718Z,90.4
2017-09-27T03:47:01.648Z,90.4
2017-09-27T03:48:11.579Z,90.02
2017-09-27T03:49:21.823Z,90.78
2017-09-27T03:50:32.072Z,90.11
2017-09-27T03:51:42.251Z,90.69
2017-09-27T03:52:51.871Z,90.78
2017-09-27T03:54:02.116Z,90.21
2017-09-27T03:55:12.371Z,90.11
2017-09-27T03:56:21.989Z,90.31
2017-09-27T03:57:32.490Z,90.4
2017-09-27T03:58:42.737Z,90.02
2017-09-27T03:59:52.666Z,90.78
2017-09-27T04:01:02.926Z,90.78
2017-09-27T04:02:12.857Z,90.69
2017-09-27T04:03:23.407Z,90.69
2017-09-27T04:04:33.651Z,90.78
2017-09-27T04:05:43.905Z,90.78
2017-09-27T04:06:54.144Z,90.02
2017-09-27T04:08:04.393Z,90.31
2017-09-27T04:09:14.259Z,90.21
2017-09-27T04:10:24.203Z,90.5
2017-09-27T04:11:34.481Z,90.78
2017-09-27T04:12:44.740Z,90.69
2017-09-27T04:13:54.990Z,90.88
2017-09-27T04:15:05.178Z,90.59
2017-09-27T04:16:15.421Z,90.59
2017-09-27T04:17:25.359Z,90.11
2017-09-27T04:18:35.619Z,90.78
2017-09-27T04:19:45.543Z,90.78
2017-09-27T04:20:55.732Z,90.78
2017-09-27T04:22:05.672Z,90.21
2017-09-27T04:23:15.927Z,90.69
2017-09-27T04:24:25.874Z,90.21
2017-09-27T04:25:35.902Z,90.21
2017-09-27T04:26:45.776Z,90.59
2017-09-27T04:27:56.028Z,90.88
2017-09-27T04:29:05.977Z,90.78
2017-09-27T04:30:16.238Z,90.69
2017-09-27T04:31:26.490Z,90.78
2017-09-27T04:32:36.679Z,90.69
2017-09-27T04:33:46.934Z,90.02
2017-09-27T04:34:57.428Z,90.69
2017-09-27T04:36:07.369Z,90.78
2017-09-27T04:37:17.636Z,90.21
2017-09-27T04:38:27.819Z,90.21
2017-09-27T04:39:38.074Z,90.21
2017-09-27T04:40:48.009Z,89.92
2017-09-27T04:41:58.275Z,90.88
2017-09-27T04:43:08.538Z,90.4
2017-09-27T04:44:19.048Z,90.59
2017-09-27T04:45:29.293Z,90.02
2017-09-27T04:46:39.233Z,90.5
2017-09-27T04:47:49.481Z,90.59
2017-09-27T04:48:59.742Z,90.78
2017-09-27T04:50:10.397Z,90.59
2017-09-27T04:51:20.645Z,90.69
2017-09-27T04:52:30.906Z,91.26
2017-09-27T04:53:41.153Z,90.97
2017-09-27T04:54:51.103Z,90.69
2017-09-27T04:56:01.607Z,90.4
2017-09-27T04:57:11.856Z,90.5
2017-09-27T04:58:21.472Z,91.16
2017-09-27T04:59:31.731Z,91.16
2017-09-27T05:00:42.003Z,91.16
2017-09-27T05:01:52.202Z,91.16
2017-09-27T05:03:02.141Z,91.16
2017-09-27T05:04:12.401Z,91.16
2017-09-27T05:05:22.656Z,91.16
2017-09-27T05:06:32.897Z,91.45
2017-09-27T05:07:43.408Z,90.88
2017-09-27T05:08:53.351Z,91.26
2017-09-27T05:10:02.981Z,91.07
2017-09-27T05:11:13.225Z,91.26
2017-09-27T05:12:23.482Z,91.26
2017-09-27T05:13:34.010Z,91.26
2017-09-27T05:14:43.944Z,90.97
2017-09-27T05:15:54.189Z,91.16
2017-09-27T05:17:04.131Z,91.16
2017-09-27T05:18:14.427Z,91.07
2017-09-27T05:19:24.932Z,91.16
2017-09-27T05:20:35.192Z,91.16
2017-09-27T05:21:45.445Z,91.45
2017-09-27T05:22:55.695Z,91.36
2017-09-27T05:24:05.630Z,91.45
2017-09-27T05:25:16.155Z,91.07
2017-09-27T05:26:26.095Z,91.07
2017-09-27T05:27:36.041Z,91.55
2017-09-27T05:28:45.981Z,91.07
2017-09-27T05:29:56.226Z,90.97
2017-09-27T05:31:06.470Z,90.88
2017-09-27T05:32:16.810Z,90.88
2017-09-27T05:33:26.435Z,90.69
2017-09-27T05:34:36.705Z,90.88
2017-09-27T05:35:46.953Z,91.07
2017-09-27T05:36:57.451Z,91.26
2017-09-27T05:38:07.736Z,91.45
2017-09-27T05:39:17.394Z,90.69
2017-09-27T05:40:27.701Z,91.36
2017-09-27T05:41:37.969Z,90.97
2017-09-27T05:42:48.497Z,91.07
2017-09-27T05:43:58.774Z,90.97
2017-09-27T05:45:09.026Z,91.07
2017-09-27T05:46:19.283Z,91.07
2017-09-27T05:47:28.908Z,90.78
2017-09-27T05:48:39.398Z,90.97
2017-09-27T05:49:49.341Z,90.97
2017-09-27T05:50:59.590Z,91.07
2017-09-27T05:52:09.845Z,91.26
2017-09-27T05:53:19.779Z,91.07
2017-09-27T05:54:30.277Z,90.97
2017-09-27T05:55:40.531Z,91.07
2017-09-27T05:56:50.785Z,91.16
2017-09-27T05:58:00.717Z,90.45
2017-09-27T05:59:10.967Z,91.21
2017-09-27T06:00:21.466Z,91.21
2017-09-27T06:01:31.405Z,91.21
2017-09-27T06:02:41.661Z,91.02
2017-09-27T06:03:51.917Z,90.73
2017-09-27T06:05:01.851Z,91.3
2017-09-27T06:06:11.753Z,91.02
2017-09-27T06:07:22.023Z,90.92
2017-09-27T06:08:31.982Z,91.11
2017-09-27T06:09:41.922Z,90.92
2017-09-27T06:10:52.199Z,90.83
2017-09-27T06:12:02.697Z,91.11
2017-09-27T06:13:12.689Z,91.11
2017-09-27T06:14:22.624Z,91.11
2017-09-27T06:15:32.871Z,91.02
2017-09-27T06:16:42.815Z,91.21
2017-09-27T06:17:53.026Z,91.11
2017-09-27T06:19:03.294Z,91.21
2017-09-27T06:20:13.540Z,90.45
2017-09-27T06:21:23.487Z,90.92
2017-09-27T06:22:33.419Z,91.21
2017-09-27T06:23:43.608Z,91.11
2017-09-27T06:24:53.553Z,91.21
2017-09-27T06:26:03.831Z,91.02
2017-09-27T06:27:13.463Z,91.21
2017-09-27T06:28:23.401Z,90.73
2017-09-27T06:29:33.618Z,91.02
2017-09-27T06:30:43.951Z,91.21
2017-09-27T06:31:54.224Z,90.83
2017-09-27T06:33:04.197Z,91.11
2017-09-27T06:34:14.475Z,91.02
2017-09-27T06:35:25.022Z,91.21
2017-09-27T06:36:35.295Z,91.11
2017-09-27T06:37:45.348Z,91.21
2017-09-27T06:38:55.744Z,91.3
2017-09-27T06:40:06.015Z,91.11
2017-09-27T06:41:16.304Z,91.3
2017-09-27T06:42:26.576Z,91.02
2017-09-27T06:43:36.833Z,91.21
2017-09-27T06:44:46.795Z,91.3
2017-09-27T06:45:57.081Z,90.92
2017-09-27T06:47:07.587Z,91.3
2017-09-27T06:48:17.541Z,91.5
2017-09-27T06:49:27.499Z,91.5
2017-09-27T06:50:37.764Z,91.3
2017-09-27T06:51:48.064Z,91.3
2017-09-27T06:52:58.588Z,91.78
2017-09-27T06:54:08.827Z,92.07
2017-09-27T06:55:19.144Z,91.3
2017-09-27T06:56:29.463Z,91.69
2017-09-27T06:57:39.738Z,92.36
2017-09-27T06:58:50.266Z,92.16
2017-09-27T07:00:00.534Z,92.16
2017-09-27T07:01:10.471Z,92.36
2017-09-27T07:02:20.729Z,92.36
2017-09-27T07:03:31.002Z,92.07
2017-09-27T07:04:41.519Z,92.16
2017-09-27T07:05:51.788Z,92.16
2017-09-27T07:07:02.036Z,91.97
2017-09-27T07:08:12.313Z,92.26
2017-09-27T07:09:22.632Z,92.4
2017-09-27T07:10:32.857Z,91.97
2017-09-27T07:11:42.809Z,92.4
2017-09-27T07:12:52.761Z,93.74
2017-09-27T07:14:02.474Z,94.02
2017-09-27T07:15:12.779Z,93.93
2017-09-27T07:16:23.009Z,93.65
2017-09-27T07:17:33.278Z,93.55
2017-09-27T07:18:43.552Z,94.22
2017-09-27T07:19:53.221Z,94.79
2017-09-27T07:21:03.493Z,94.6
2017-09-27T07:22:14.015Z,94.79
2017-09-27T07:23:24.300Z,95.07
2017-09-27T07:24:34.545Z,94.79
2017-09-27T07:25:44.832Z,95.07
2017-09-27T07:26:55.093Z,94.6
2017-09-27T07:28:04.982Z,94.51
2017-09-27T07:29:15.256Z,94.51
2017-09-27T07:30:25.226Z,95.46
2017-09-27T07:31:35.477Z,95.75
2017-09-27T07:32:45.142Z,95.94
2017-09-27T07:33:55.660Z,95.56
2017-09-27T07:35:05.629Z,96.22
2017-09-27T07:36:15.572Z,95.84
2017-09-27T07:37:25.550Z,95.94
2017-09-27T07:38:35.188Z,95.84
2017-09-27T07:39:45.390Z,96.61
2017-09-27T07:40:55.325Z,97.66
2017-09-27T07:42:05.297Z,98.13
2017-09-27T07:43:15.584Z,98.23
2017-09-27T07:44:25.855Z,97.75
2017-09-27T07:45:36.046Z,97.56
2017-09-27T07:46:46.000Z,97.37
2017-09-27T07:47:55.958Z,97.37
2017-09-27T07:49:06.207Z,97.28
2017-09-27T07:50:16.471Z,97.8
2017-09-27T07:51:26.975Z,97.9
2017-09-27T07:52:36.617Z,97.8
2017-09-27T07:53:46.551Z,98.28
2017-09-27T07:54:56.810Z,98.85
2017-09-27T07:56:06.745Z,98.85
2017-09-27T07:57:17.255Z,99.52
2017-09-27T07:58:27.209Z,99.99
2017-09-27T07:59:37.476Z,99.99
2017-09-27T08:00:47.753Z,99.99
2017-09-27T08:01:58.028Z,99.99
2017-09-27T08:03:08.593Z,99.99
2017-09-27T08:04:18.868Z,99.99
2017-09-27T08:05:28.828Z,99.99
2017-09-27T08:06:39.090Z,99.99
2017-09-27T08:07:49.351Z,99.99
2017-09-27T08:08:59.539Z,99.99
2017-09-27T08:10:09.825Z,99.99
2017-09-27T08:11:20.107Z,99.99
2017-09-27T08:12:29.424Z,99.99
2017-09-27T08:13:39.695Z,99.99
2017-09-27T08:14:50.515Z,99.99
2017-09-27T08:16:00.471Z,99.99
2017-09-27T08:17:10.735Z,99.99
2017-09-27T08:18:21.011Z,99.99
2017-09-27T08:19:31.276Z,99.99
2017-09-27T08:20:41.466Z,99.99
2017-09-27T08:21:51.119Z,99.99
2017-09-27T08:23:01.370Z,99.99
2017-09-27T08:24:11.322Z,99.99
2017-09-27T08:25:21.574Z,99.99
2017-09-27T08:26:31.769Z,99.99
2017-09-27T08:27:41.708Z,99.99
2017-09-27T08:28:51.652Z,99.99
2017-09-27T08:30:01.917Z,99.99
2017-09-27T08:31:12.199Z,99.99
2017-09-27T08:32:22.405Z,99.99
2017-09-27T08:33:32.939Z,99.99
2017-09-27T08:34:43.211Z,99.99
2017-09-27T08:35:53.520Z,99.99
2017-09-27T08:37:03.821Z,99.99
2017-09-27T08:38:14.459Z,99.99
2017-09-27T08:39:24.757Z,99.99
2017-09-27T08:40:35.016Z,99.99
2017-09-27T08:41:45.275Z,99.99
2017-09-27T08:42:55.529Z,99.99
2017-09-27T08:44:06.039Z,99.99
2017-09-27T08:45:15.990Z,99.99
2017-09-27T08:46:26.247Z,99.99
2017-09-27T08:47:36.513Z,99.99
2017-09-27T08:48:46.476Z,99.99
2017-09-27T08:49:56.981Z,99.99
2017-09-27T08:51:07.243Z,99.99
2017-09-27T08:52:17.522Z,99.99
2017-09-27T08:53:27.811Z,99.99
2017-09-27T08:54:38.094Z,99.99
2017-09-27T08:55:48.334Z,99.99
2017-09-27T08:56:58.297Z,99.99
2017-09-27T08:58:08.258Z,99.99
2017-09-27T08:59:18.516Z,99.99
2017-09-27T09:00:28.478Z,99.99
2017-09-27T09:01:39.008Z,99.99
2017-09-27T09:02:49.264Z,99.99
2017-09-27T09:03:59.535Z,99.99
2017-09-27T09:05:09.494Z,99.99
2017-09-27T09:06:19.778Z,99.99
2017-09-27T09:07:30.299Z,99.99
2017-09-27T09:08:40.245Z,99.99
2017-09-27T09:09:50.212Z,99.99
2017-09-27T09:11:00.471Z,99.99
2017-09-27T09:12:10.727Z,99.99
2017-09-27T09:13:21.266Z,99.99
2017-09-27T09:14:31.539Z,99.99
2017-09-27T09:15:41.816Z,99.99
2017-09-27T09:16:52.078Z,99.99
2017-09-27T09:18:02.018Z,99.99
2017-09-27T09:19:12.206Z,99.99
2017-09-27T09:20:22.472Z,99.99
2017-09-27T09:21:32.748Z,99.99
2017-09-27T09:22:42.685Z,99.99
2017-09-27T09:23:52.939Z,99.99
2017-09-27T09:25:03.139Z,99.99
2017-09-27T09:26:13.113Z,99.99
2017-09-27T09:27:23.063Z,99.99
2017-09-27T09:28:33.009Z,99.99
2017-09-27T09:29:43.273Z,99.99
2017-09-27T09:30:53.779Z,99.99
2017-09-27T09:32:03.726Z,99.99
2017-09-27T09:33:13.990Z,99.99
2017-09-27T09:34:24.258Z,99.99
2017-09-27T09:35:34.518Z,99.99
2017-09-27T09:36:44.748Z,99.99
2017-09-27T09:37:55.013Z,99.99
2017-09-27T09:39:04.949Z,99.99
2017-09-27T09:40:15.227Z,99.99
2017-09-27T09:41:25.483Z,99.99
2017-09-27T09:42:35.998Z,99.99
2017-09-27T09:43:46.291Z,99.99
2017-09-27T09:44:56.546Z,99.99
2017-09-27T09:46:06.858Z,99.99
2017-09-27T09:47:17.121Z,99.99
2017-09-27T09:48:27.665Z,99.99
2017-09-27T09:49:37.609Z,99.99
2017-09-27T09:50:47.874Z,99.99
2017-09-27T09:51:58.176Z,99.99
2017-09-27T09:53:08.562Z,99.99
2017-09-27T09:54:19.080Z,99.99
2017-09-27T09:55:29.350Z,99.99
2017-09-27T09:56:39.621Z,99.99
2017-09-27T09:57:49.935Z,99.99
2017-09-27T09:59:00.275Z,99.99
2017-09-27T10:00:10.855Z,99.99
2017-09-27T10:01:21.133Z,99.99
2017-09-27T10:02:31.393Z,99.99
2017-09-27T10:03:41.682Z,99.99
2017-09-27T10:04:51.633Z,99.99
2017-09-27T10:06:02.153Z,99.99
2017-09-27T10:07:12.436Z,99.99
2017-09-27T10:08:22.071Z,99.99
2017-09-27T10:09:32.353Z,99.99
2017-09-27T10:10:41.993Z,99.99
2017-09-27T10:11:52.570Z,99.99
2017-09-27T10:13:02.839Z,99.99
2017-09-27T10:14:12.811Z,99.99
2017-09-27T10:15:23.095Z,99.99
2017-09-27T10:16:33.368Z,99.99
2017-09-27T10:17:43.570Z,99.99
2017-09-27T10:18:53.842Z,99.99
2017-09-27T10:20:04.150Z,99.99
2017-09-27T10:21:14.428Z,99.99
2017-09-27T10:22:24.382Z,99.99
2017-09-27T10:23:34.254Z,99.99
2017-09-27T10:24:44.254Z,99.99
2017-09-27T10:25:54.569Z,99.99
2017-09-27T10:27:04.832Z,99.99
2017-09-27T10:28:14.720Z,99.99
2017-09-27T10:29:25.242Z,99.99
2017-09-27T10:30:35.517Z,99.99
2017-09-27T10:31:45.786Z,99.99
2017-09-27T10:32:55.754Z,99.99
2017-09-27T10:34:06.050Z,99.99
2017-09-27T10:35:16.599Z,99.99
2017-09-27T10:36:26.901Z,99.99
2017-09-27T10:37:37.205Z,99.99
2017-09-27T10:38:47.762Z,99.99
2017-09-27T10:39:58.049Z,99.99
2017-09-27T10:41:07.957Z,98.77
2017-09-27T10:42:18.259Z,99.99
2017-09-27T10:43:28.547Z,98.53
2017-09-27T10:44:38.821Z,99.3
2017-09-27T10:45:49.085Z,98.44
2017-09-27T10:46:59.271Z,96.9
2017-09-27T10:48:09.242Z,98
2017-09-27T10:49:19.204Z,96.22
2017-09-27T10:50:29.168Z,95.26
2017-09-27T10:51:39.475Z,94.49
2017-09-27T10:52:50.019Z,94.4
2017-09-27T10:53:59.969Z,94.3
2017-09-27T10:55:10.236Z,94.68
2017-09-27T10:56:20.211Z,94.01
2017-09-27T10:57:30.169Z,95.26
2017-09-27T10:58:40.419Z,95.07
2017-09-27T10:59:50.716Z,95.84
2017-09-27T11:01:01.018Z,95.45
2017-09-27T11:02:11.335Z,94.2
2017-09-27T11:03:21.630Z,94.78
2017-09-27T11:04:31.547Z,93.62
2017-09-27T11:05:41.896Z,95.98
2017-09-27T11:06:52.233Z,93.77
2017-09-27T11:08:02.521Z,91.5
2017-09-27T11:09:12.494Z,92.08
2017-09-27T11:10:23.042Z,92.22
2017-09-27T11:11:32.988Z,92.37
2017-09-27T11:12:43.318Z,91.69
2017-09-27T11:13:53.606Z,91.21
2017-09-27T11:15:03.910Z,91.41
2017-09-27T11:16:14.495Z,91.6
2017-09-27T11:17:24.680Z,91.6
2017-09-27T11:18:34.947Z,91.65
2017-09-27T11:19:44.913Z,91.6
2017-09-27T11:20:55.205Z,92.03
2017-09-27T11:22:05.760Z,90.88
2017-09-27T11:23:15.705Z,90.44
2017-09-27T11:24:25.642Z,89
2017-09-27T11:25:35.908Z,89.19
2017-09-27T11:26:46.171Z,89.48
2017-09-27T11:27:56.380Z,89.04
2017-09-27T11:29:06.644Z,88.08
2017-09-27T11:30:16.596Z,87.21
2017-09-27T11:31:26.543Z,86.87
2017-09-27T11:32:36.821Z,87.06
2017-09-27T11:33:47.349Z,86.19
2017-09-27T11:34:57.328Z,86.24
2017-09-27T11:36:07.833Z,86.68
2017-09-27T11:37:17.810Z,87.83
2017-09-27T11:38:28.100Z,87.06
2017-09-27T11:39:38.663Z,86.77
2017-09-27T11:40:48.944Z,86.39
2017-09-27T11:41:58.897Z,86.29
2017-09-27T11:43:09.164Z,86.87
2017-09-27T11:44:19.445Z,87.02
2017-09-27T11:45:30.029Z,87.65
2017-09-27T11:46:40.294Z,88.9
2017-09-27T11:47:50.557Z,88.32
2017-09-27T11:49:00.506Z,87.7
2017-09-27T11:50:10.478Z,86.82
2017-09-27T11:51:21.000Z,84.7
2017-09-27T11:52:31.272Z,84.84
2017-09-27T11:53:41.231Z,84.27
2017-09-27T11:54:51.501Z,84.79
2017-09-27T11:56:01.764Z,84.69
2017-09-27T11:57:12.281Z,84.55
2017-09-27T11:58:22.575Z,84.07
2017-09-27T11:59:32.862Z,84.9
2017-09-27T12:00:43.391Z,83.69
2017-09-27T12:01:53.667Z,84.17
2017-09-27T12:03:03.898Z,83.4
2017-09-27T12:04:13.881Z,83.4
2017-09-27T12:05:24.145Z,85.38
2017-09-27T12:06:34.454Z,84.7
2017-09-27T12:07:44.438Z,84.65
2017-09-27T12:08:54.945Z,83.88
2017-09-27T12:10:05.218Z,82.28
2017-09-27T12:11:15.501Z,82.48
2017-09-27T12:12:25.766Z,81.7
2017-09-27T12:13:36.285Z,81.32
2017-09-27T12:14:46.759Z,80
2017-09-27T12:15:57.073Z,80.68
2017-09-27T12:17:07.364Z,81.7
2017-09-27T12:18:17.675Z,82.38
2017-09-27T12:19:27.633Z,83.83
2017-09-27T12:20:38.140Z,81.7
2017-09-27T12:21:48.416Z,82.34
2017-09-27T12:22:58.695Z,81.41
2017-09-27T12:24:08.968Z,81.7
2017-09-27T12:25:19.231Z,82.57
2017-09-27T12:26:29.756Z,83.3
2017-09-27T12:27:39.762Z,83.01
2017-09-27T12:28:49.733Z,82.68
2017-09-27T12:29:59.689Z,84.03
2017-09-27T12:31:09.961Z,83.8
2017-09-27T12:32:20.482Z,84.66
2017-09-27T12:33:30.771Z,84.47
2017-09-27T12:34:40.718Z,86.3
2017-09-27T12:35:50.666Z,85.63
2017-09-27T12:37:00.624Z,85.72
2017-09-27T12:38:10.840Z,85.97
2017-09-27T12:39:21.113Z,86.45
2017-09-27T12:40:31.372Z,86.65
2017-09-27T12:41:41.678Z,87.12
2017-09-27T12:42:51.618Z,86.45
2017-09-27T12:44:02.137Z,86.65
2017-09-27T12:45:12.426Z,86.26
2017-09-27T12:46:22.373Z,86.79
2017-09-27T12:47:32.328Z,86.99
2017-09-27T12:48:42.594Z,87.08
2017-09-27T12:49:53.187Z,87.08
2017-09-27T12:51:03.454Z,88.43
2017-09-27T12:52:13.416Z,87.76
2017-09-27T12:53:23.390Z,87.76
2017-09-27T12:54:33.665Z,87.66
2017-09-27T12:55:44.177Z,87.46
2017-09-27T12:56:54.139Z,88.24
2017-09-27T12:58:04.088Z,87.66
2017-09-27T12:59:14.036Z,88
2017-09-27T13:00:24.313Z,88.29
2017-09-27T13:01:34.831Z,88.29
2017-09-27T13:02:45.097Z,88.39
2017-09-27T13:03:55.040Z,89.06
2017-09-27T13:05:04.999Z,88.57
2017-09-27T13:06:15.325Z,89.35
2017-09-27T13:07:25.526Z,88.29
2017-09-27T13:08:35.787Z,88.29
2017-09-27T13:09:45.738Z,87.81
2017-09-27T13:10:56.010Z,89.25
2017-09-27T13:12:05.707Z,89.06
2017-09-27T13:13:15.901Z,88.77
2017-09-27T13:14:26.157Z,88.39
2017-09-27T13:15:36.112Z,88.87
2017-09-27T13:16:46.388Z,89.44
2017-09-27T13:17:56.343Z,88.87
2017-09-27T13:19:07.092Z,89.64
2017-09-27T13:20:17.364Z,89.25
2017-09-27T13:21:27.640Z,89.01
2017-09-27T13:22:37.919Z,89.39
2017-09-27T13:23:48.187Z,89.39
2017-09-27T13:24:58.757Z,89.1
2017-09-27T13:26:09.043Z,89.58
2017-09-27T13:27:19.311Z,89.25
2017-09-27T13:28:29.265Z,89.44
2017-09-27T13:29:39.228Z,89.44
2017-09-27T13:30:49.511Z,89.44
2017-09-27T13:31:59.784Z,89.54
2017-09-27T13:33:10.064Z,89.83
2017-09-27T13:34:20.022Z,90.12
2017-09-27T13:35:29.977Z,90.07
2017-09-27T13:36:40.488Z,90.59
2017-09-27T13:37:50.749Z,90.55
2017-09-27T13:39:01.030Z,91.13
2017-09-27T13:40:11.302Z,91.42
2017-09-27T13:41:21.264Z,91.03
2017-09-27T13:42:31.823Z,91.52
2017-09-27T13:43:41.780Z,91.36
2017-09-27T13:44:52.045Z,90.59
2017-09-27T13:46:02.297Z,90.21
2017-09-27T13:47:12.565Z,90.21
2017-09-27T13:48:23.080Z,89.54
2017-09-27T13:49:33.334Z,89.06
2017-09-27T13:50:43.645Z,88.96
2017-09-27T13:51:53.603Z,89.06
2017-09-27T13:53:03.543Z,89.25
2017-09-27T13:54:14.078Z,89.06
2017-09-27T13:55:24.058Z,89.73
2017-09-27T13:56:34.325Z,89.44
2017-09-27T13:57:44.606Z,88.77
2017-09-27T13:58:54.549Z,89.44
2017-09-27T14:00:05.069Z,89.15
2017-09-27T14:01:15.329Z,89.44
2017-09-27T14:02:25.280Z,89.15
2017-09-27T14:03:35.244Z,88.29
2017-09-27T14:04:45.511Z,87.71
2017-09-27T14:05:55.721Z,86.99
2017-09-27T14:07:05.681Z,86.79
2017-09-27T14:08:15.662Z,86.51
2017-09-27T14:09:25.936Z,86.41
2017-09-27T14:10:36.221Z,86.22
2017-09-27T14:11:46.800Z,86.12
2017-09-27T14:12:57.071Z,85.54
2017-09-27T14:14:07.369Z,85.25
2017-09-27T14:15:17.625Z,86.02
2017-09-27T14:16:27.891Z,86.12
2017-09-27T14:17:38.092Z,85.35
2017-09-27T14:18:48.360Z,85.25
2017-09-27T14:19:58.644Z,85.58
2017-09-27T14:21:08.913Z,85.06
2017-09-27T14:22:19.181Z,84.97
2017-09-27T14:23:29.701Z,85.25
2017-09-27T14:24:39.985Z,85.16
2017-09-27T14:25:50.262Z,85.54
2017-09-27T14:27:00.540Z,85.64
2017-09-27T14:28:10.822Z,85.25
2017-09-27T14:29:21.403Z,84.19
2017-09-27T14:30:31.354Z,84.58
2017-09-27T14:31:40.998Z,84.39
2017-09-27T14:32:51.268Z,85.54
2017-09-27T14:34:01.538Z,85.54
2017-09-27T14:35:11.748Z,86.08
2017-09-27T14:36:22.003Z,86.46
2017-09-27T14:37:32.275Z,86.65
2017-09-27T14:38:42.535Z,86.36
2017-09-27T14:39:52.491Z,85.69
2017-09-27T14:41:02.701Z,86.27
2017-09-27T14:42:12.667Z,86.85
2017-09-27T14:43:22.937Z,86.56
2017-09-27T14:44:33.240Z,87.09
2017-09-27T14:45:43.247Z,88.1
2017-09-27T14:46:53.459Z,87.23
2017-09-27T14:48:03.727Z,87.57
2017-09-27T14:49:14.003Z,87.52
2017-09-27T14:50:24.278Z,87.9
2017-09-27T14:51:34.242Z,87.67
2017-09-27T14:52:44.752Z,89.01
2017-09-27T14:53:55.024Z,89.5
2017-09-27T14:55:05.280Z,89.01
2017-09-27T14:56:15.543Z,89.11
2017-09-27T14:57:25.811Z,88.63
2017-09-27T14:58:36.333Z,88.44
2017-09-27T14:59:46.630Z,89.78
2017-09-27T15:00:56.897Z,89.11
2017-09-27T15:02:07.168Z,89.21
2017-09-27T15:03:17.554Z,89.4
2017-09-27T15:04:27.746Z,89.5
2017-09-27T15:05:38.010Z,88.82